createdAt,value
2017-09-21T00:01:58.038Z,14.90
2017-09-21T00:04:25.500Z,14.90
2017-09-21T00:06:53.666Z,14.90
2017-09-21T00:09:21.151Z,14.80
2017-09-21T00:11:48.639Z,14.80
2017-09-21T00:14:16.872Z,14.80
2017-09-21T00:16:44.359Z,14.80
2017-09-21T00:19:11.865Z,14.80
2017-09-21T00:21:39.335Z,14.70
2017-09-21T00:24:06.819Z,14.70
2017-09-21T00:26:34.286Z,14.70
2017-09-21T00:29:01.767Z,14.70
2017-09-21T00:31:30.023Z,14.60
2017-09-21T00:33:57.508Z,14.60
2017-09-21T00:36:24.987Z,14.60
2017-09-21T00:38:53.230Z,14.60
2017-09-21T00:41:21.464Z,14.50
2017-09-21T00:43:48.938Z,14.50
2017-09-21T00:46:16.429Z,14.50
2017-09-21T00:48:44.699Z,14.50
2017-09-21T00:51:13.447Z,14.50
2017-09-21T00:53:40.928Z,14.50
2017-09-21T00:56:08.404Z,14.50
2017-09-21T00:58:36.659Z,14.50
2017-09-21T01:01:04.140Z,14.50
2017-09-21T01:03:31.700Z,14.50
2017-09-21T01:05:59.172Z,14.50
2017-09-21T01:08:26.655Z,14.50
2017-09-21T01:10:54.167Z,14.40
2017-09-21T01:13:22.397Z,14.40
2017-09-21T01:15:50.004Z,14.40
2017-09-21T01:18:17.489Z,14.40
2017-09-21T01:20:44.972Z,14.40
2017-09-21T01:23:12.560Z,14.30
2017-09-21T01:25:40.796Z,14.30
2017-09-21T01:28:08.287Z,14.30
2017-09-21T01:30:36.563Z,14.20
2017-09-21T01:33:04.813Z,14.20
2017-09-21T01:35:32.294Z,14.20
2017-09-21T01:38:00.555Z,14.10
2017-09-21T01:40:28.029Z,14.10
2017-09-21T01:42:55.583Z,14.00
2017-09-21T01:45:23.067Z,14.00
2017-09-21T01:47:50.545Z,14.00
2017-09-21T01:50:18.034Z,13.90
2017-09-21T01:52:45.520Z,13.90
2017-09-21T01:55:13.766Z,13.80
2017-09-21T01:57:41.529Z,13.70
2017-09-21T02:00:09.108Z,13.80
2017-09-21T02:02:36.578Z,13.70
2017-09-21T02:05:04.820Z,13.70
2017-09-21T02:07:32.300Z,13.70
2017-09-21T02:10:00.572Z,13.70
2017-09-21T02:12:28.035Z,13.70
2017-09-21T02:14:56.296Z,13.70
2017-09-21T02:17:23.872Z,13.60
2017-09-21T02:19:52.146Z,13.60
2017-09-21T02:22:19.700Z,13.60
2017-09-21T02:24:47.255Z,13.60
2017-09-21T02:27:15.512Z,13.60
2017-09-21T02:29:43.089Z,13.60
2017-09-21T02:32:10.569Z,13.60
2017-09-21T02:34:38.819Z,13.60
2017-09-21T02:37:06.292Z,13.60
2017-09-21T02:39:34.552Z,13.60
2017-09-21T02:42:02.036Z,13.60
2017-09-21T02:44:30.279Z,13.60
2017-09-21T02:46:58.528Z,13.60
2017-09-21T02:49:26.895Z,13.60
2017-09-21T02:51:54.392Z,13.60
2017-09-21T02:54:22.644Z,13.50
2017-09-21T02:56:50.131Z,13.50
2017-09-21T02:59:17.646Z,13.40
2017-09-21T03:01:45.107Z,13.40
2017-09-21T03:04:12.584Z,13.30
2017-09-21T03:06:40.067Z,13.30
2017-09-21T03:09:09.025Z,13.20
2017-09-21T03:11:36.503Z,13.10
2017-09-21T03:14:04.778Z,13.10
2017-09-21T03:16:32.348Z,13.10
2017-09-21T03:19:00.587Z,13.00
2017-09-21T03:21:28.076Z,12.90
2017-09-21T03:23:56.358Z,12.80
2017-09-21T03:26:25.128Z,12.80
2017-09-21T03:28:52.616Z,12.80
2017-09-21T03:31:21.172Z,12.70
2017-09-21T03:33:48.722Z,12.70
2017-09-21T03:36:16.206Z,12.70
2017-09-21T03:38:44.443Z,12.50
2017-09-21T03:41:12.053Z,12.50
2017-09-21T03:43:39.568Z,12.50
2017-09-21T03:46:07.144Z,12.50
2017-09-21T03:48:34.639Z,12.40
2017-09-21T03:51:02.206Z,12.40
2017-09-21T03:53:29.708Z,12.30
2017-09-21T03:55:57.175Z,12.40
2017-09-21T03:58:24.744Z,12.30
2017-09-21T04:00:53.000Z,12.20
2017-09-21T04:03:20.571Z,12.20
2017-09-21T04:05:48.845Z,12.10
2017-09-21T04:08:16.321Z,12.10
2017-09-21T04:10:43.813Z,12.10
2017-09-21T04:13:11.298Z,12.00
2017-09-21T04:15:39.591Z,12.00
2017-09-21T04:18:07.112Z,11.90
2017-09-21T04:20:34.586Z,11.90
2017-09-21T04:23:02.080Z,11.90
2017-09-21T04:25:30.545Z,11.80
2017-09-21T04:27:58.812Z,11.80
2017-09-21T04:30:26.303Z,11.70
2017-09-21T04:32:53.842Z,11.70
2017-09-21T04:35:22.097Z,11.70
2017-09-21T04:37:49.573Z,11.60
2017-09-21T04:40:17.817Z,11.60
2017-09-21T04:42:45.348Z,11.60
2017-09-21T04:45:12.828Z,11.50
2017-09-21T04:47:40.320Z,11.50
2017-09-21T04:50:08.587Z,11.50
2017-09-21T04:52:36.505Z,11.50
2017-09-21T04:55:03.984Z,11.40
2017-09-21T04:57:31.579Z,11.30
2017-09-21T04:59:59.056Z,11.30
2017-09-21T05:02:27.313Z,11.30
2017-09-21T05:04:54.859Z,11.20
2017-09-21T05:07:24.404Z,11.20
2017-09-21T05:09:51.885Z,11.20
2017-09-21T05:12:19.360Z,11.20
2017-09-21T05:14:46.828Z,11.10
2017-09-21T05:17:14.309Z,11.10
2017-09-21T05:19:42.565Z,11.10
2017-09-21T05:22:10.052Z,11.10
2017-09-21T05:24:37.538Z,11.10
2017-09-21T05:27:06.051Z,11.00
2017-09-21T05:29:33.518Z,11.00
2017-09-21T05:32:01.027Z,11.00
2017-09-21T05:34:28.509Z,11.00
2017-09-21T05:36:55.978Z,11.00
2017-09-21T05:39:23.451Z,11.00
2017-09-21T05:41:50.952Z,11.00
2017-09-21T05:44:18.430Z,11.00
2017-09-21T05:46:45.901Z,11.00
2017-09-21T05:49:13.376Z,10.90
2017-09-21T05:51:40.848Z,11.00
2017-09-21T05:54:09.121Z,11.00
2017-09-21T05:56:37.395Z,11.10
2017-09-21T05:59:05.640Z,11.10
2017-09-21T06:01:33.119Z,11.10
2017-09-21T06:04:00.618Z,11.10
2017-09-21T06:06:28.104Z,11.20
2017-09-21T06:08:55.570Z,11.20
2017-09-21T06:11:23.151Z,11.20
2017-09-21T06:13:50.728Z,11.20
2017-09-21T06:16:18.987Z,11.40
2017-09-21T06:18:48.244Z,11.40
2017-09-21T06:21:15.716Z,11.40
2017-09-21T06:23:43.215Z,11.50
2017-09-21T06:26:11.455Z,11.60
2017-09-21T06:28:39.025Z,11.60
2017-09-21T06:31:06.543Z,11.70
2017-09-21T06:33:34.027Z,11.80
2017-09-21T06:36:01.499Z,11.90
2017-09-21T06:38:28.967Z,11.90
2017-09-21T06:40:57.215Z,12.00
2017-09-21T06:43:25.351Z,12.10
2017-09-21T06:45:52.827Z,12.10
2017-09-21T06:48:20.315Z,12.20
2017-09-21T06:50:47.904Z,12.30
2017-09-21T06:53:16.242Z,12.40
2017-09-21T06:55:43.715Z,12.30
2017-09-21T06:58:11.225Z,12.40
2017-09-21T07:00:39.711Z,12.50
2017-09-21T07:03:07.211Z,12.60
2017-09-21T07:05:35.451Z,12.80
2017-09-21T07:08:02.947Z,12.80
2017-09-21T07:10:31.201Z,13.00
2017-09-21T07:12:58.672Z,12.90
2017-09-21T07:15:26.920Z,13.20
2017-09-21T07:17:54.409Z,13.20
2017-09-21T07:20:21.872Z,13.30
2017-09-21T07:22:50.204Z,13.50
2017-09-21T07:25:17.740Z,13.50
2017-09-21T07:27:45.254Z,13.60
2017-09-21T07:30:13.734Z,13.80
2017-09-21T07:32:41.371Z,13.80
2017-09-21T07:35:08.960Z,13.90
2017-09-21T07:37:37.267Z,14.00
2017-09-21T07:40:05.943Z,14.00
2017-09-21T07:42:34.444Z,14.10
2017-09-21T07:45:01.998Z,14.20
2017-09-21T07:47:29.476Z,14.20
2017-09-21T07:49:57.095Z,14.30
2017-09-21T07:52:25.609Z,14.40
2017-09-21T07:54:53.324Z,14.40
2017-09-21T07:57:21.072Z,14.50
2017-09-21T07:59:49.987Z,14.70
2017-09-21T08:02:18.278Z,14.70
2017-09-21T08:04:46.707Z,14.80
2017-09-21T08:07:14.310Z,14.80
2017-09-21T08:09:41.784Z,14.80
2017-09-21T08:12:09.313Z,14.80
2017-09-21T08:14:37.788Z,14.80
2017-09-21T08:17:05.274Z,14.80
2017-09-21T08:19:32.793Z,14.90
2017-09-21T08:22:01.888Z,15.10
2017-09-21T08:24:29.443Z,15.10
2017-09-21T08:26:57.050Z,15.30
2017-09-21T08:29:24.572Z,15.30
2017-09-21T08:31:52.043Z,15.40
2017-09-21T08:34:20.283Z,15.40
2017-09-21T08:36:47.765Z,15.40
2017-09-21T08:39:16.043Z,15.50
2017-09-21T08:41:44.308Z,15.60
2017-09-21T08:44:11.817Z,15.60
2017-09-21T08:46:39.279Z,15.80
2017-09-21T08:49:07.080Z,15.80
2017-09-21T08:51:34.562Z,15.90
2017-09-21T08:54:02.818Z,16.00
2017-09-21T08:56:30.312Z,16.00
2017-09-21T08:58:57.784Z,16.10
2017-09-21T09:01:25.249Z,16.20
2017-09-21T09:03:52.745Z,16.30
2017-09-21T09:06:20.215Z,16.40
2017-09-21T09:08:48.504Z,16.70
2017-09-21T09:11:15.993Z,16.70
2017-09-21T09:13:43.505Z,16.80
2017-09-21T09:16:11.743Z,16.80
2017-09-21T09:18:40.027Z,16.80
2017-09-21T09:21:07.508Z,16.80
2017-09-21T09:23:34.983Z,16.70
2017-09-21T09:26:03.241Z,16.90
2017-09-21T09:28:31.496Z,17.00
2017-09-21T09:30:59.787Z,17.00
2017-09-21T09:33:27.346Z,17.20
2017-09-21T09:35:54.824Z,17.30
2017-09-21T09:38:23.073Z,17.50
2017-09-21T09:40:51.366Z,17.60
2017-09-21T09:43:19.604Z,17.80
2017-09-21T09:45:47.086Z,17.80
2017-09-21T09:48:14.649Z,17.90
2017-09-21T09:50:42.130Z,18.00
2017-09-21T09:53:10.473Z,17.90
2017-09-21T09:55:37.988Z,17.90
2017-09-21T09:58:05.468Z,17.90
2017-09-21T10:00:32.951Z,17.70
2017-09-21T10:03:00.433Z,17.80
2017-09-21T10:05:28.040Z,17.80
2017-09-21T10:07:55.629Z,17.90
2017-09-21T10:10:23.868Z,17.90
2017-09-21T10:12:51.345Z,17.90
2017-09-21T10:15:18.823Z,17.90
2017-09-21T10:17:47.059Z,18.10
2017-09-21T10:20:14.542Z,18.10
2017-09-21T10:22:42.007Z,18.30
2017-09-21T10:25:10.235Z,18.30
2017-09-21T10:27:37.960Z,18.30
2017-09-21T10:30:06.543Z,18.30
2017-09-21T10:32:34.772Z,18.40
2017-09-21T10:35:02.245Z,18.40
2017-09-21T10:37:30.536Z,18.40
2017-09-21T10:39:58.772Z,18.30
2017-09-21T10:42:26.255Z,18.30
2017-09-21T10:44:53.724Z,18.40
2017-09-21T10:47:22.003Z,18.80
2017-09-21T10:49:50.279Z,18.80
2017-09-21T10:52:18.510Z,18.80
2017-09-21T10:54:45.997Z,18.80
2017-09-21T10:57:14.250Z,18.70
2017-09-21T10:59:41.718Z,18.70
2017-09-21T11:02:09.983Z,18.90
2017-09-21T11:04:37.454Z,18.90
2017-09-21T11:07:04.984Z,19.00
2017-09-21T11:09:32.448Z,19.10
2017-09-21T11:11:59.976Z,19.00
2017-09-21T11:14:27.458Z,19.20
2017-09-21T11:16:54.999Z,19.40
2017-09-21T11:19:22.478Z,19.50
2017-09-21T11:21:50.070Z,19.60
2017-09-21T11:24:18.325Z,19.70
2017-09-21T11:26:45.799Z,19.70
2017-09-21T11:29:13.288Z,19.60
2017-09-21T11:31:40.818Z,19.70
2017-09-21T11:34:08.291Z,19.80
2017-09-21T11:36:35.786Z,20.00
2017-09-21T11:39:03.242Z,20.10
2017-09-21T11:41:31.581Z,20.20
2017-09-21T11:43:59.825Z,20.30
2017-09-21T11:46:27.396Z,20.30
2017-09-21T11:48:55.660Z,20.40
2017-09-21T11:51:23.134Z,20.40
2017-09-21T11:53:51.383Z,20.30
2017-09-21T11:56:18.875Z,20.30
2017-09-21T11:58:47.145Z,20.20
2017-09-21T12:01:14.600Z,20.20
2017-09-21T12:03:42.869Z,20.30
2017-09-21T12:06:11.109Z,20.40
2017-09-21T12:08:38.576Z,20.40
2017-09-21T12:11:06.060Z,20.40
2017-09-21T12:13:33.618Z,20.50
2017-09-21T12:16:01.086Z,20.40
2017-09-21T12:18:29.371Z,20.50
2017-09-21T12:20:57.617Z,20.60
2017-09-21T12:23:25.089Z,20.60
2017-09-21T12:25:53.374Z,20.60
2017-09-21T12:28:21.608Z,20.70
2017-09-21T12:30:49.080Z,20.60
2017-09-21T12:33:16.617Z,20.70
2017-09-21T12:35:44.460Z,20.80
2017-09-21T12:38:11.940Z,20.90
2017-09-21T12:40:39.444Z,21.00
2017-09-21T12:43:07.675Z,21.10
2017-09-21T12:45:35.147Z,21.00
2017-09-21T12:48:02.616Z,21.00
2017-09-21T12:50:30.876Z,21.10
2017-09-21T12:52:58.368Z,21.10
2017-09-21T12:55:25.905Z,21.10
2017-09-21T12:57:53.507Z,21.10
2017-09-21T13:00:20.972Z,21.20
2017-09-21T13:02:48.446Z,21.30
2017-09-21T13:05:15.910Z,21.40
2017-09-21T13:07:43.384Z,21.50
2017-09-21T13:10:10.860Z,21.50
2017-09-21T13:12:39.121Z,21.40
2017-09-21T13:15:06.635Z,21.40
2017-09-21T13:17:34.180Z,21.50
2017-09-21T13:20:01.643Z,21.50
2017-09-21T13:22:29.103Z,21.60
2017-09-21T13:24:56.916Z,21.70
2017-09-21T13:27:24.999Z,21.90
2017-09-21T13:29:53.325Z,22.20
2017-09-21T13:32:20.932Z,22.10
2017-09-21T13:34:49.163Z,22.00
2017-09-21T13:37:16.633Z,22.00
2017-09-21T13:39:44.116Z,22.10
2017-09-21T13:42:11.587Z,22.20
2017-09-21T13:44:39.834Z,22.30
2017-09-21T13:47:07.603Z,22.30
2017-09-21T13:49:35.076Z,22.40
2017-09-21T13:52:02.565Z,22.50
2017-09-21T13:54:30.032Z,22.60
2017-09-21T13:56:57.541Z,22.60
2017-09-21T13:59:26.140Z,22.40
2017-09-21T14:01:54.383Z,22.30
2017-09-21T14:04:21.857Z,22.20
2017-09-21T14:06:50.084Z,21.90
2017-09-21T14:09:17.588Z,21.80
2017-09-21T14:11:45.828Z,21.50
2017-09-21T14:14:13.299Z,21.50
2017-09-21T14:16:40.770Z,21.50
2017-09-21T14:19:09.048Z,21.60
2017-09-21T14:21:36.801Z,21.50
2017-09-21T14:24:04.332Z,21.60
2017-09-21T14:26:31.807Z,21.60
2017-09-21T14:28:59.341Z,21.60
2017-09-21T14:31:26.804Z,21.70
2017-09-21T14:33:54.375Z,21.70
2017-09-21T14:36:21.860Z,21.80
2017-09-21T14:38:50.092Z,21.70
2017-09-21T14:41:17.580Z,21.70
2017-09-21T14:43:45.210Z,21.60
2017-09-21T14:46:12.676Z,21.60
2017-09-21T14:48:40.266Z,21.60
2017-09-21T14:51:07.793Z,21.50
2017-09-21T14:53:35.271Z,21.50
2017-09-21T14:56:02.772Z,21.50
2017-09-21T14:58:30.251Z,21.60
2017-09-21T15:00:57.772Z,21.60
2017-09-21T15:03:26.037Z,21.40
2017-09-21T15:05:54.557Z,21.30
2017-09-21T15:08:22.078Z,21.30
2017-09-21T15:10:50.335Z,21.30
2017-09-21T15:13:17.952Z,21.30
2017-09-21T15:15:46.347Z,21.20
2017-09-21T15:18:13.824Z,21.20
2017-09-21T15:20:41.400Z,21.20
2017-09-21T15:23:08.860Z,21.20
2017-09-21T15:25:38.136Z,21.30
2017-09-21T15:28:06.300Z,21.30
2017-09-21T15:30:33.781Z,21.30
2017-09-21T15:33:01.247Z,21.30
2017-09-21T15:35:29.512Z,21.10
2017-09-21T15:37:56.989Z,21.10
2017-09-21T15:40:25.264Z,20.90
2017-09-21T15:42:53.532Z,20.90
2017-09-21T15:45:21.767Z,20.70
2017-09-21T15:47:49.258Z,20.70
2017-09-21T15:50:16.819Z,20.60
2017-09-21T15:52:45.477Z,20.40
2017-09-21T15:55:12.956Z,20.40
2017-09-21T15:57:41.239Z,20.30
2017-09-21T16:00:09.484Z,20.30
2017-09-21T16:02:36.968Z,20.30
2017-09-21T16:05:04.433Z,20.20
2017-09-21T16:07:32.696Z,20.20
2017-09-21T16:10:00.173Z,20.10
2017-09-21T16:12:28.412Z,20.00
2017-09-21T16:14:56.313Z,20.00
2017-09-21T16:17:24.600Z,19.90
2017-09-21T16:19:52.072Z,19.80
2017-09-21T16:22:19.775Z,19.80
2017-09-21T16:24:47.288Z,19.70
2017-09-21T16:27:14.758Z,19.60
2017-09-21T16:29:42.256Z,19.60
2017-09-21T16:32:09.737Z,19.50
2017-09-21T16:34:37.977Z,19.30
2017-09-21T16:37:05.552Z,19.30
2017-09-21T16:39:33.170Z,19.30
2017-09-21T16:42:00.673Z,19.30
2017-09-21T16:44:28.147Z,19.20
2017-09-21T16:46:56.384Z,19.00
2017-09-21T16:49:23.863Z,19.00
2017-09-21T16:51:51.416Z,19.00
2017-09-21T16:54:18.884Z,18.90
2017-09-21T16:56:47.149Z,18.80
2017-09-21T16:59:14.638Z,18.80
2017-09-21T17:01:42.123Z,18.70
2017-09-21T17:04:09.594Z,18.70
2017-09-21T17:06:37.072Z,18.60
2017-09-21T17:09:05.298Z,18.50
2017-09-21T17:11:33.669Z,18.40
2017-09-21T17:14:01.192Z,18.40
2017-09-21T17:16:28.667Z,18.30
2017-09-21T17:18:56.923Z,18.20
2017-09-21T17:21:25.719Z,18.10
2017-09-21T17:23:53.971Z,18.00
2017-09-21T17:26:21.435Z,18.00
2017-09-21T17:28:48.936Z,17.90
2017-09-21T17:31:16.424Z,17.80
2017-09-21T17:33:43.892Z,17.70
2017-09-21T17:36:11.467Z,17.60
2017-09-21T17:38:39.552Z,17.60
2017-09-21T17:41:07.836Z,17.50
2017-09-21T17:43:36.084Z,17.40
2017-09-21T17:46:04.315Z,17.40
2017-09-21T17:48:31.781Z,17.40
2017-09-21T17:50:59.268Z,17.30
2017-09-21T17:53:26.796Z,17.30
2017-09-21T17:55:54.276Z,17.20
2017-09-21T17:58:21.761Z,17.10
2017-09-21T18:00:50.016Z,17.00
2017-09-21T18:03:17.516Z,17.00
2017-09-21T18:05:45.461Z,16.90
2017-09-21T18:08:13.433Z,16.90
2017-09-21T18:10:41.741Z,16.80
2017-09-21T18:13:09.237Z,16.70
2017-09-21T18:15:36.711Z,16.70
2017-09-21T18:18:04.280Z,16.60
2017-09-21T18:20:32.559Z,16.50
2017-09-21T18:23:00.842Z,16.40
2017-09-21T18:25:29.814Z,16.40
2017-09-21T18:27:58.675Z,16.30
2017-09-21T18:30:26.216Z,16.30
2017-09-21T18:32:53.691Z,16.30
2017-09-21T18:35:21.175Z,16.20
2017-09-21T18:37:48.781Z,16.10
2017-09-21T18:40:16.251Z,16.10
2017-09-21T18:42:43.865Z,16.00
2017-09-21T18:45:12.130Z,15.90
2017-09-21T18:47:40.380Z,15.80
2017-09-21T18:50:07.866Z,15.80
2017-09-21T18:52:36.119Z,15.70
2017-09-21T18:55:03.603Z,15.70
2017-09-21T18:57:31.869Z,15.60
2017-09-21T18:59:59.424Z,15.60
2017-09-21T19:02:26.901Z,15.50
2017-09-21T19:04:54.402Z,15.50
2017-09-21T19:07:21.908Z,15.40
2017-09-21T19:09:50.156Z,15.40
2017-09-21T19:12:17.612Z,15.40
2017-09-21T19:14:45.091Z,15.30
2017-09-21T19:17:12.585Z,15.30
2017-09-21T19:19:40.600Z,15.30
2017-09-21T19:22:08.088Z,15.20
2017-09-21T19:24:36.392Z,15.10
2017-09-21T19:27:03.855Z,15.00
2017-09-21T19:29:31.366Z,15.00
2017-09-21T19:31:58.839Z,15.00
2017-09-21T19:34:27.092Z,14.80
2017-09-21T19:36:54.596Z,14.80
2017-09-21T19:39:22.072Z,14.70
2017-09-21T19:41:49.555Z,14.70
2017-09-21T19:44:17.070Z,14.60
2017-09-21T19:46:44.567Z,14.60
2017-09-21T19:49:12.764Z,14.60
2017-09-21T19:51:40.995Z,14.50
2017-09-21T19:54:08.475Z,14.50
2017-09-21T19:56:35.999Z,14.50
2017-09-21T19:59:03.469Z,14.50
2017-09-21T20:01:30.937Z,14.50
2017-09-21T20:03:58.521Z,14.50
2017-09-21T20:06:25.992Z,14.50
2017-09-21T20:08:54.234Z,14.50
2017-09-21T20:11:21.703Z,14.50
2017-09-21T20:13:49.172Z,14.50
2017-09-21T20:16:17.413Z,14.40
2017-09-21T20:18:45.081Z,14.40
2017-09-21T20:21:12.576Z,14.40
2017-09-21T20:23:40.809Z,14.40
2017-09-21T20:26:08.384Z,14.30
2017-09-21T20:28:35.971Z,14.40
2017-09-21T20:31:04.205Z,14.30
2017-09-21T20:33:31.780Z,14.30
2017-09-21T20:35:59.240Z,14.30
2017-09-21T20:38:26.791Z,14.30
2017-09-21T20:40:54.317Z,14.20
2017-09-21T20:43:21.791Z,14.20
2017-09-21T20:45:49.272Z,14.20
2017-09-21T20:48:16.833Z,14.10
2017-09-21T20:50:45.073Z,14.00
2017-09-21T20:53:12.804Z,14.00
2017-09-21T20:55:40.271Z,14.00
2017-09-21T20:58:07.776Z,14.00
2017-09-21T21:00:36.033Z,13.90
2017-09-21T21:03:03.597Z,13.90
2017-09-21T21:05:31.485Z,13.90
2017-09-21T21:07:59.003Z,13.80
2017-09-21T21:10:26.595Z,13.70
2017-09-21T21:12:54.134Z,13.70
2017-09-21T21:15:21.651Z,13.60
2017-09-21T21:17:49.118Z,13.60
2017-09-21T21:20:16.578Z,13.60
2017-09-21T21:22:44.603Z,13.50
2017-09-21T21:25:12.195Z,13.50
2017-09-21T21:27:40.204Z,13.50
2017-09-21T21:30:07.699Z,13.40
2017-09-21T21:32:35.152Z,13.40
2017-09-21T21:35:03.825Z,13.40
2017-09-21T21:37:32.076Z,13.40
2017-09-21T21:39:59.549Z,13.40
2017-09-21T21:42:27.120Z,13.40
2017-09-21T21:44:55.371Z,13.40
2017-09-21T21:47:24.386Z,13.30
2017-09-21T21:49:52.661Z,13.30
2017-09-21T21:52:20.167Z,13.30
2017-09-21T21:54:47.634Z,13.40
2017-09-21T21:57:15.099Z,13.40
2017-09-21T21:59:42.582Z,13.40
2017-09-21T22:02:10.070Z,13.40
2017-09-21T22:04:37.544Z,13.40
2017-09-21T22:07:05.446Z,13.40
2017-09-21T22:09:32.913Z,13.40
2017-09-21T22:12:00.388Z,13.40
2017-09-21T22:14:29.319Z,13.40
2017-09-21T22:16:56.795Z,13.30
2017-09-21T22:19:24.272Z,13.30
2017-09-21T22:21:51.757Z,13.30
2017-09-21T22:24:20.028Z,13.20
2017-09-21T22:26:49.078Z,13.30
2017-09-21T22:29:16.556Z,13.20
2017-09-21T22:31:44.024Z,13.30
2017-09-21T22:34:12.260Z,13.30
2017-09-21T22:36:39.739Z,13.30
2017-09-21T22:39:07.207Z,13.30
2017-09-21T22:41:34.688Z,13.30
2017-09-21T22:44:02.937Z,13.30
2017-09-21T22:46:30.449Z,13.30
2017-09-21T22:48:57.924Z,13.30
2017-09-21T22:51:27.039Z,13.30
2017-09-21T22:53:54.619Z,13.30
2017-09-21T22:56:22.087Z,13.20
2017-09-21T22:58:50.343Z,13.20
2017-09-21T23:01:17.817Z,13.20
2017-09-21T23:03:47.796Z,13.10
2017-09-21T23:06:15.267Z,13.00
2017-09-21T23:08:42.740Z,13.00
2017-09-21T23:11:11.811Z,12.90
2017-09-21T23:13:40.103Z,12.90
2017-09-21T23:16:08.384Z,12.90
2017-09-21T23:18:36.619Z,12.80
2017-09-21T23:21:04.628Z,12.80
2017-09-21T23:23:32.868Z,12.80
2017-09-21T23:26:00.359Z,12.70
2017-09-21T23:28:28.620Z,12.70
2017-09-21T23:30:56.091Z,12.70
2017-09-21T23:33:24.344Z,12.60
2017-09-21T23:35:51.824Z,12.60
2017-09-21T23:38:20.067Z,12.60
2017-09-21T23:40:47.535Z,12.60
2017-09-21T23:43:15.073Z,12.50
2017-09-21T23:45:42.555Z,12.50
2017-09-21T23:48:10.721Z,12.40
2017-09-21T23:50:38.300Z,12.40
2017-09-21T23:53:05.770Z,12.40
2017-09-21T23:55:34.010Z,12.30
2017-09-21T23:58:01.516Z,12.30
